createdAt,value
2023-02-22T00:00:09.685Z,98476.40
2023-02-22T00:03:25.172Z,98477.40
2023-02-22T00:06:34.256Z,98478.20
2023-02-22T00:09:41.984Z,98480.00
2023-02-22T00:12:53.068Z,98474.60
2023-02-22T00:16:02.491Z,98472.20
2023-02-22T00:19:10.924Z,98473.80
2023-02-22T00:22:20.862Z,98470.00
2023-02-22T00:25:28.363Z,98478.80
2023-02-22T00:28:37.056Z,98477.00
2023-02-22T00:31:45.300Z,98479.00
2023-02-22T00:34:56.520Z,98469.80
2023-02-22T00:38:06.966Z,98463.40
2023-02-22T00:41:15.406Z,98467.60
2023-02-22T00:44:23.848Z,98473.80
2023-02-22T00:47:32.216Z,98468.60
2023-02-22T00:50:40.805Z,98474.40
2023-02-22T00:53:48.745Z,98469.00
2023-02-22T00:56:58.411Z,98468.80
2023-02-22T01:00:13.115Z,98471.00
2023-02-22T01:03:23.328Z,98470.80
2023-02-22T01:06:32.243Z,98469.40
2023-02-22T01:09:41.929Z,98468.00
2023-02-22T01:12:50.164Z,98460.60
2023-02-22T01:15:58.619Z,98457.40
2023-02-22T01:19:07.070Z,98454.80
2023-02-22T01:22:14.969Z,98454.80
2023-02-22T01:25:26.235Z,98453.80
2023-02-22T01:28:34.789Z,98456.80
2023-02-22T01:31:44.201Z,98451.80
2023-02-22T01:34:54.152Z,98451.20
2023-02-22T01:38:02.673Z,98447.60
2023-02-22T01:41:11.043Z,98447.20
2023-02-22T01:44:35.323Z,98446.40
2023-02-22T01:47:44.023Z,98447.60
2023-02-22T01:50:57.164Z,98446.80
2023-02-22T01:54:13.669Z,98447.00
2023-02-22T01:57:30.025Z,98446.40
2023-02-22T02:00:40.087Z,98447.60
2023-02-22T02:03:50.388Z,98447.00
2023-02-22T02:07:03.813Z,98450.00
2023-02-22T02:10:16.293Z,98448.60
2023-02-22T02:13:26.037Z,98446.40
2023-02-22T02:16:43.238Z,98446.40
2023-02-22T02:20:07.272Z,98446.60
2023-02-22T02:23:50.184Z,98448.40
2023-02-22T02:27:13.038Z,98442.40
2023-02-22T02:30:54.771Z,98446.20
2023-02-22T02:34:15.158Z,98443.80
2023-02-22T02:37:36.704Z,98440.40
2023-02-22T02:40:54.811Z,98439.60
2023-02-22T02:44:07.258Z,98444.20
2023-02-22T02:47:23.288Z,98441.80
2023-02-22T02:50:38.363Z,98444.60
2023-02-22T02:53:51.400Z,98446.20
2023-02-22T02:57:02.002Z,98447.20
2023-02-22T03:00:22.806Z,98448.00
2023-02-22T03:04:03.584Z,98450.20
2023-02-22T03:07:34.093Z,98445.80
2023-02-22T03:11:02.115Z,98443.60
2023-02-22T03:14:23.398Z,98447.20
2023-02-22T03:17:45.526Z,98443.40
2023-02-22T03:21:08.592Z,98440.80
2023-02-22T03:24:27.887Z,98442.40
2023-02-22T03:27:43.917Z,98441.20
2023-02-22T03:30:57.204Z,98443.00
2023-02-22T03:34:11.439Z,98444.00
2023-02-22T03:37:25.887Z,98447.00
2023-02-22T03:40:39.344Z,98451.40
2023-02-22T03:43:55.777Z,98458.20
2023-02-22T03:47:11.196Z,98455.00
2023-02-22T03:50:25.432Z,98459.80
2023-02-22T03:53:37.245Z,98459.80
2023-02-22T03:56:54.618Z,98463.80
2023-02-22T04:00:02.654Z,98469.00
2023-02-22T04:03:10.624Z,98473.60
2023-02-22T04:06:19.073Z,98472.40
2023-02-22T04:09:27.063Z,98475.00
2023-02-22T04:12:35.315Z,98469.40
2023-02-22T04:15:43.268Z,98475.20
2023-02-22T04:18:51.897Z,98471.20
2023-02-22T04:21:59.786Z,98469.60
2023-02-22T04:25:09.263Z,98475.60
2023-02-22T04:28:18.216Z,98470.40
2023-02-22T04:31:26.508Z,98473.40
2023-02-22T04:34:34.427Z,98475.20
2023-02-22T04:37:42.329Z,98476.60
2023-02-22T04:40:50.714Z,98477.80
2023-02-22T04:43:59.052Z,98477.20
2023-02-22T04:47:07.170Z,98477.80
2023-02-22T04:50:17.660Z,98482.00
2023-02-22T04:53:25.910Z,98483.00
2023-02-22T04:56:33.928Z,98483.00
2023-02-22T04:59:41.897Z,98481.60
2023-02-22T05:02:50.571Z,98480.80
2023-02-22T05:05:58.581Z,98483.00
2023-02-22T05:09:07.116Z,98478.40
2023-02-22T05:12:15.363Z,98479.20
2023-02-22T05:15:25.958Z,98473.80
2023-02-22T05:18:33.910Z,98476.20
2023-02-22T05:21:41.946Z,98482.20
2023-02-22T05:24:49.919Z,98485.60
2023-02-22T05:28:01.197Z,98484.40
2023-02-22T05:31:09.414Z,98484.60
2023-02-22T05:34:28.184Z,98496.00
2023-02-22T05:37:37.551Z,98500.80
2023-02-22T05:40:46.628Z,98501.20
2023-02-22T05:43:54.496Z,98503.20
2023-02-22T05:47:04.732Z,98498.80
2023-02-22T05:50:14.355Z,98512.40
2023-02-22T05:53:24.135Z,98513.80
2023-02-22T05:56:33.138Z,98511.20
2023-02-22T05:59:41.003Z,98512.40
2023-02-22T06:02:48.940Z,98518.00
2023-02-22T06:05:56.797Z,98520.80
2023-02-22T06:09:04.445Z,98526.80
2023-02-22T06:12:12.781Z,98528.20
2023-02-22T06:15:25.340Z,98537.80
2023-02-22T06:18:33.471Z,98545.00
2023-02-22T06:21:42.110Z,98547.20
2023-02-22T06:24:50.500Z,98542.40
2023-02-22T06:27:58.627Z,98542.80
2023-02-22T06:31:06.975Z,98544.60
2023-02-22T06:34:15.092Z,98538.20
2023-02-22T06:37:23.076Z,98543.20
2023-02-22T06:40:31.178Z,98542.20
2023-02-22T06:43:39.059Z,98545.60
2023-02-22T06:46:52.207Z,98551.60
2023-02-22T06:50:02.206Z,98549.40
2023-02-22T06:53:08.449Z,98561.80
2023-02-22T06:56:16.578Z,98558.60
2023-02-22T06:59:24.947Z,98557.40
2023-02-22T07:02:35.147Z,98556.80
2023-02-22T07:05:43.521Z,98564.60
2023-02-22T07:08:51.698Z,98561.40
2023-02-22T07:11:59.470Z,98567.80
2023-02-22T07:15:09.312Z,98572.80
2023-02-22T07:18:17.708Z,98565.40
2023-02-22T07:21:25.788Z,98567.20
2023-02-22T07:24:36.353Z,98566.80
2023-02-22T07:27:45.102Z,98565.80
2023-02-22T07:30:53.110Z,98567.20
2023-02-22T07:34:01.244Z,98565.00
2023-02-22T07:37:09.121Z,98564.60
2023-02-22T07:40:18.160Z,98569.80
2023-02-22T07:43:29.140Z,98562.20
2023-02-22T07:46:37.453Z,98566.20
2023-02-22T07:49:45.625Z,98562.00
2023-02-22T07:52:56.178Z,98562.80
2023-02-22T07:56:08.963Z,98562.40
2023-02-22T07:59:17.651Z,98568.40
2023-02-22T08:02:26.718Z,98568.20
2023-02-22T08:05:37.134Z,98570.00
2023-02-22T08:08:45.122Z,98568.80
2023-02-22T08:11:53.069Z,98576.80
2023-02-22T08:15:01.143Z,98572.20
2023-02-22T08:18:12.080Z,98573.80
2023-02-22T08:21:20.692Z,98564.00
2023-02-22T08:24:29.008Z,98566.40
2023-02-22T08:27:36.823Z,98566.60
2023-02-22T08:30:46.470Z,98566.00
2023-02-22T08:34:01.500Z,98567.80
2023-02-22T08:37:09.686Z,98562.20
2023-02-22T08:40:21.457Z,98562.40
2023-02-22T08:43:30.184Z,98566.00
2023-02-22T08:46:39.068Z,98558.60
2023-02-22T08:49:46.916Z,98561.80
2023-02-22T08:52:58.753Z,98563.20
2023-02-22T08:56:07.444Z,98563.00
2023-02-22T08:59:15.383Z,98563.20
2023-02-22T09:02:25.373Z,98567.80
2023-02-22T09:05:34.124Z,98567.60
2023-02-22T09:08:42.156Z,98567.00
2023-02-22T09:11:52.733Z,98563.80
2023-02-22T09:15:01.324Z,98566.40
2023-02-22T09:18:13.215Z,98565.00
2023-02-22T09:21:21.446Z,98556.60
2023-02-22T09:24:29.938Z,98558.40
2023-02-22T09:27:39.044Z,98560.40
2023-02-22T09:30:47.467Z,98558.20
2023-02-22T09:33:55.449Z,98560.00
2023-02-22T09:37:05.116Z,98557.20
2023-02-22T09:40:25.436Z,98561.80
2023-02-22T09:43:46.983Z,98561.80
2023-02-22T09:46:56.750Z,98551.60
2023-02-22T09:50:15.713Z,98561.80
2023-02-22T09:53:30.805Z,98559.20
2023-02-22T09:56:40.703Z,98556.00
2023-02-22T09:59:59.973Z,98556.60
2023-02-22T10:03:24.234Z,98553.00
2023-02-22T10:06:35.138Z,98550.00
2023-02-22T10:09:46.940Z,98550.00
2023-02-22T10:13:07.589Z,98549.60
2023-02-22T10:16:27.755Z,98549.60
2023-02-22T10:19:49.402Z,98548.80
2023-02-22T10:23:14.878Z,98548.00
2023-02-22T10:26:31.182Z,98547.40
2023-02-22T10:29:45.073Z,98545.00
2023-02-22T10:33:00.033Z,98543.60
2023-02-22T10:36:17.624Z,98540.60
2023-02-22T10:39:34.807Z,98535.60
2023-02-22T10:42:42.580Z,98538.20
2023-02-22T10:45:53.927Z,98525.40
2023-02-22T10:49:08.668Z,98526.20
2023-02-22T10:52:23.535Z,98527.40
2023-02-22T10:55:32.573Z,98524.80
2023-02-22T10:58:50.421Z,98522.60
2023-02-22T11:01:58.603Z,98518.60
2023-02-22T11:05:27.084Z,98516.00
2023-02-22T11:08:36.358Z,98514.00
2023-02-22T11:11:48.093Z,98517.00
2023-02-22T11:14:56.846Z,98512.00
2023-02-22T11:18:06.748Z,98504.60
2023-02-22T11:21:24.634Z,98503.80
2023-02-22T11:24:48.432Z,98494.60
2023-02-22T11:28:07.975Z,98489.60
2023-02-22T11:31:25.513Z,98485.80
2023-02-22T11:34:38.985Z,98483.40
2023-02-22T11:37:47.293Z,98482.80
2023-02-22T11:44:30.790Z,98481.80
2023-02-22T11:47:47.995Z,98486.40
2023-02-22T11:51:14.632Z,98483.40
2023-02-22T11:54:54.852Z,98483.40
2023-02-22T11:58:28.388Z,98485.80
2023-02-22T12:01:51.552Z,98479.80
2023-02-22T12:05:37.582Z,98479.60
2023-02-22T12:09:04.716Z,98475.80
2023-02-22T12:12:25.158Z,98474.60
2023-02-22T12:15:45.738Z,98472.20
2023-02-22T12:19:13.463Z,98464.60
2023-02-22T12:22:26.721Z,98462.20
2023-02-22T12:25:39.652Z,98464.60
2023-02-22T12:28:59.426Z,98464.60
2023-02-22T12:32:14.315Z,98461.00
2023-02-22T12:35:28.307Z,98467.80
2023-02-22T12:38:45.379Z,98460.80
2023-02-22T12:41:58.508Z,98457.20
2023-02-22T12:45:17.332Z,98458.40
2023-02-22T12:48:37.514Z,98454.80
2023-02-22T12:51:56.208Z,98456.00
2023-02-22T12:55:16.680Z,98454.40
2023-02-22T12:58:34.094Z,98449.20
2023-02-22T13:01:47.878Z,98446.40
2023-02-22T13:04:56.829Z,98446.00
2023-02-22T13:08:24.937Z,98447.00
2023-02-22T13:11:47.599Z,98446.80
2023-02-22T13:15:10.861Z,98442.20
2023-02-22T13:18:32.817Z,98440.80
2023-02-22T13:21:49.423Z,98439.20
2023-02-22T13:25:12.186Z,98438.40
2023-02-22T13:28:37.692Z,98437.40
2023-02-22T13:32:15.622Z,98440.00
2023-02-22T13:35:48.761Z,98439.00
2023-02-22T13:39:46.173Z,98446.00
2023-02-22T13:43:29.518Z,98444.20
2023-02-22T13:47:32.234Z,98435.20
2023-02-22T13:51:07.303Z,98435.20
2023-02-22T13:54:29.875Z,98435.80
2023-02-22T13:57:48.351Z,98432.00
2023-02-22T14:00:58.585Z,98440.40
2023-02-22T14:07:58.946Z,98442.60
2023-02-22T14:11:28.736Z,98436.80
2023-02-22T14:14:56.870Z,98441.00
2023-02-22T14:18:21.576Z,98440.80
2023-02-22T14:21:29.894Z,98434.60
2023-02-22T14:24:51.101Z,98442.40
2023-02-22T14:27:59.843Z,98438.80
2023-02-22T14:31:29.387Z,98443.40
2023-02-22T14:34:58.454Z,98439.40
2023-02-22T14:38:19.533Z,98437.20
2023-02-22T14:41:31.742Z,98438.00
2023-02-22T14:44:50.231Z,98436.80
2023-02-22T14:48:11.752Z,98431.40
2023-02-22T14:51:29.204Z,98432.80
2023-02-22T14:55:08.255Z,98429.80
2023-02-22T14:58:26.007Z,98422.80
2023-02-22T15:02:05.965Z,98427.60
2023-02-22T15:05:11.064Z,98426.40
2023-02-22T15:08:29.546Z,98429.20
2023-02-22T15:11:37.420Z,98431.00
2023-02-22T15:14:48.142Z,98431.00
2023-02-22T15:18:00.882Z,98428.80
2023-02-22T15:21:16.537Z,98422.40
2023-02-22T15:24:29.084Z,98423.60
2023-02-22T15:27:42.197Z,98420.40
2023-02-22T15:30:50.677Z,98428.00
2023-02-22T15:33:59.455Z,98423.40
2023-02-22T15:37:29.290Z,98428.40
2023-02-22T15:40:43.216Z,98428.00
2023-02-22T15:44:14.199Z,98429.20
2023-02-22T15:47:33.264Z,98422.60
2023-02-22T15:50:59.532Z,98426.20
2023-02-22T15:54:18.361Z,98424.40
2023-02-22T15:57:35.917Z,98426.00
2023-02-22T16:00:48.923Z,98426.00
2023-02-22T16:04:01.486Z,98424.40
2023-02-22T16:07:17.307Z,98417.20
2023-02-22T16:10:33.465Z,98421.80
2023-02-22T16:13:43.350Z,98420.40
2023-02-22T16:16:49.991Z,98421.20
2023-02-22T16:19:59.185Z,98424.80
2023-02-22T16:23:27.979Z,98427.00
2023-02-22T16:26:37.726Z,98427.60
2023-02-22T16:29:47.002Z,98429.60
2023-02-22T16:32:57.683Z,98430.60
2023-02-22T16:36:10.855Z,98437.00
2023-02-22T16:39:27.467Z,98432.20
2023-02-22T16:42:35.450Z,98435.40
2023-02-22T16:45:44.910Z,98440.00
2023-02-22T16:48:52.694Z,98444.20
2023-02-22T16:52:08.533Z,98440.60
2023-02-22T16:55:20.520Z,98440.60
2023-02-22T16:58:30.640Z,98439.00
2023-02-22T17:01:38.465Z,98436.20
2023-02-22T17:04:49.668Z,98441.40
2023-02-22T17:07:57.503Z,98440.00
2023-02-22T17:11:06.277Z,98445.00
2023-02-22T17:14:23.295Z,98447.80
2023-02-22T17:17:32.767Z,98448.60
2023-02-22T17:20:40.765Z,98450.20
2023-02-22T17:23:49.008Z,98446.80
2023-02-22T17:26:58.419Z,98445.80
2023-02-22T17:30:07.284Z,98445.00
2023-02-22T17:33:19.656Z,98450.00
2023-02-22T17:36:27.664Z,98447.00
2023-02-22T17:39:35.775Z,98442.20
2023-02-22T17:42:44.154Z,98449.00
2023-02-22T17:45:54.041Z,98444.80
2023-02-22T17:49:00.600Z,98437.20
2023-02-22T17:52:09.797Z,98436.00
2023-02-22T17:55:19.526Z,98438.60
2023-02-22T17:58:31.247Z,98435.40
2023-02-22T18:01:39.850Z,98433.60
2023-02-22T18:04:48.009Z,98431.40
2023-02-22T18:07:56.172Z,98429.20
2023-02-22T18:11:08.027Z,98432.40
2023-02-22T18:14:16.077Z,98431.00
2023-02-22T18:17:24.819Z,98432.20
2023-02-22T18:20:38.539Z,98429.60
2023-02-22T18:23:47.480Z,98427.00
2023-02-22T18:26:55.463Z,98425.40
2023-02-22T18:30:04.125Z,98415.60
2023-02-22T18:33:13.185Z,98418.20
2023-02-22T18:36:23.839Z,98420.20
2023-02-22T18:39:34.937Z,98416.40
2023-02-22T18:42:43.692Z,98421.20
2023-02-22T18:45:51.853Z,98420.80
2023-02-22T18:49:17.446Z,98427.40
2023-02-22T18:52:27.568Z,98427.40
2023-02-22T18:55:37.339Z,98432.80
2023-02-22T18:58:45.350Z,98435.40
2023-02-22T19:01:53.516Z,98439.80
2023-02-22T19:05:02.835Z,98441.00
2023-02-22T19:08:11.587Z,98444.00
2023-02-22T19:11:22.307Z,98441.00
2023-02-22T19:14:30.493Z,98439.20
2023-02-22T19:17:40.619Z,98440.80
2023-02-22T19:20:59.418Z,98441.40
2023-02-22T19:24:08.333Z,98432.60
2023-02-22T19:27:17.375Z,98429.80
2023-02-22T19:30:25.914Z,98434.20
2023-02-22T19:33:34.960Z,98438.40
2023-02-22T19:36:46.649Z,98437.40
2023-02-22T19:39:55.146Z,98439.00
2023-02-22T19:43:03.120Z,98437.60
2023-02-22T19:46:12.941Z,98445.00
2023-02-22T19:49:20.895Z,98446.80
2023-02-22T19:52:29.554Z,98441.40
2023-02-22T19:55:41.443Z,98437.40
2023-02-22T19:58:52.592Z,98444.20
2023-02-22T20:02:01.096Z,98445.20
2023-02-22T20:05:16.482Z,98451.00
2023-02-22T20:08:26.545Z,98446.80
2023-02-22T20:11:34.686Z,98448.40
2023-02-22T20:14:42.774Z,98447.80
2023-02-22T20:17:51.626Z,98446.40
2023-02-22T20:21:00.066Z,98448.40
2023-02-22T20:24:15.001Z,98444.00
2023-02-22T20:27:24.625Z,98442.80
2023-02-22T20:30:34.213Z,98443.00
2023-02-22T20:33:43.276Z,98451.00
2023-02-22T20:36:51.701Z,98442.40
2023-02-22T20:40:00.554Z,98443.40
2023-02-22T20:43:11.644Z,98435.60
2023-02-22T20:46:20.489Z,98437.40
2023-02-22T20:49:28.791Z,98442.20
2023-02-22T20:52:36.606Z,98448.00
2023-02-22T20:55:53.536Z,98443.80
2023-02-22T20:59:04.192Z,98448.40
2023-02-22T21:02:13.295Z,98449.40
2023-02-22T21:05:21.835Z,98447.60
2023-02-22T21:08:31.300Z,98451.20
2023-02-22T21:11:40.206Z,98450.60
2023-02-22T21:14:48.613Z,98453.00
2023-02-22T21:17:57.432Z,98452.80
2023-02-22T21:21:10.529Z,98451.20
2023-02-22T21:24:18.316Z,98453.40
2023-02-22T21:27:26.370Z,98454.40
2023-02-22T21:30:36.237Z,98452.60
2023-02-22T21:33:44.782Z,98449.60
2023-02-22T21:36:52.665Z,98449.20
2023-02-22T21:40:00.566Z,98447.00
2023-02-22T21:43:10.911Z,98445.60
2023-02-22T21:46:19.165Z,98447.20
2023-02-22T21:49:28.480Z,98449.80
2023-02-22T21:52:37.734Z,98450.60
2023-02-22T21:55:45.502Z,98451.60
2023-02-22T21:58:59.868Z,98457.20
2023-02-22T22:02:08.405Z,98460.60
2023-02-22T22:05:32.778Z,98450.80
2023-02-22T22:08:41.957Z,98447.80
2023-02-22T22:11:52.471Z,98451.80
2023-02-22T22:15:00.448Z,98448.60
2023-02-22T22:18:08.628Z,98444.00
2023-02-22T22:21:22.998Z,98436.00
2023-02-22T22:24:32.193Z,98438.40
2023-02-22T22:27:40.439Z,98439.60
2023-02-22T22:30:48.812Z,98441.20
2023-02-22T22:33:57.394Z,98436.60
2023-02-22T22:37:05.804Z,98440.60
2023-02-22T22:40:16.096Z,98443.40
2023-02-22T22:43:24.284Z,98444.20
2023-02-22T22:46:32.560Z,98446.60
2023-02-22T22:49:42.821Z,98447.40
2023-02-22T22:52:50.951Z,98447.00
2023-02-22T22:56:03.778Z,98451.60
2023-02-22T22:59:13.812Z,98453.60
2023-02-22T23:02:21.680Z,98451.00
2023-02-22T23:05:31.143Z,98453.80
2023-02-22T23:08:43.281Z,98455.60
2023-02-22T23:11:54.821Z,98455.20
2023-02-22T23:15:03.041Z,98455.20
2023-02-22T23:18:11.122Z,98453.40
2023-02-22T23:21:19.339Z,98454.00
2023-02-22T23:24:27.695Z,98454.40
2023-02-22T23:27:35.796Z,98464.60
2023-02-22T23:30:44.406Z,98465.20
2023-02-22T23:33:55.758Z,98456.60
2023-02-22T23:37:06.513Z,98458.60
2023-02-22T23:40:18.647Z,98462.60
2023-02-22T23:43:27.254Z,98460.80
2023-02-22T23:46:36.682Z,98466.20
2023-02-22T23:49:49.621Z,98465.80
2023-02-22T23:53:03.850Z,98460.60
2023-02-22T23:56:13.243Z,98458.40
2023-02-22T23:59:21.135Z,98452.40
